Pagina principale
METAR-TAF:

METAR-TAF

Aeroporti :

Farnborough, Inghilterra

latitudine: 51-17N, longitudine: 000-46W, altezza: 65 m

Osservazione

Il bollettino è stato emesso 16 minuti fa, alle 20:50 UTC
Vento 10 kt da est
Temperature 7°C
Umidità 93%
Pressione 993 hPa
Visibilità 10 km o più

METAR: EGLF 222050Z AUTO 08010KT 9999 NCD 07/06 Q0993

Ora: 21:06 (21:06 UTC)

Previsione

Il bollettino è stato emesso 1 ora e 4 minuti fa, alle 20:02 UTC
Previsione valida dal 22 alle 21 UTC al 22 alle 23 UTC
Vento 9 kt da est
Visibilità 10 km o più
Nubi sparse ad un'altezza di 2000 ft
Probabilità 40% :
Temporaneamente
dal 22 alle 21 UTC al 22 alle 23 UTC
Visibilità: 8000 m
Nuvoloso ad un'altezza di 1400 ft
rovesci di pioggia

TAF: EGLF 222002Z 2221/2223 10009KT 9999 SCT020 PROB40 TEMPO 2221/2223 8000 SHRA BKN014

Osservazioni e previsioni meteorologiche di più di 4000 aeroporti (messaggi METAR e TAF).

Le stazioni disponibili sono rappresentate dai dischi gialli e rossi sulla carta.

Puntare il mouse per vedere il nome della stazione.

Clicca sopra per visualizzare le osservazioni e previsioni meteorologiche.

Per cambiare la mappa : fare clic sui pulsanti verdi con una croce nera per ingrandire, il pulsante verde con un trattino per diminuire, o sulla freccia verde per le mappe adiacenti.


METAR-TAF: